Time;durP1;ratioP1;P1;durP2;ratioP2;P2;SDS_P1;SDS_P2;PMS_P1;PMS_P2;Temp;Humidity;BMP_temperature;BMP_pressure;BME280_temperature;BME280_humidity;BME280_pressure;Samples;Min_cycle;Max_cycle;Signal;HPM_P1;HPM_P2
2022/08/27 00:01:57;;;;;;;1.55;1.40;;;;;;;20.82;59.52;101070.63;5032305;28;20032;-56
2022/08/27 00:04:23;;;;;;;1.75;1.55;;;;;;;20.59;59.44;101076.53;5031697;28;20030;-56
2022/08/27 00:06:49;;;;;;;2.58;1.60;;;;;;;20.43;60.22;101075.66;5031495;28;20179;-56
2022/08/27 00:09:16;;;;;;;3.60;1.63;;;;;;;20.15;61.18;101073.31;5032120;28;20404;-56
2022/08/27 00:11:43;;;;;;;2.20;1.70;;;;;;;20.31;60.11;101067.69;5031762;28;20018;-56
2022/08/27 00:14:10;;;;;;;2.65;2.00;;;;;;;19.74;62.10;101063.03;5031976;28;20033;-56
2022/08/27 00:16:36;;;;;;;2.97;1.90;;;;;;;19.80;62.47;101063.06;5031324;28;20032;-56
2022/08/27 00:19:03;;;;;;;2.40;2.20;;;;;;;19.56;62.64;101059.91;5031699;28;20025;-56
2022/08/27 00:21:31;;;;;;;2.95;2.30;;;;;;;19.18;64.78;101064.47;5031834;28;20049;-56
2022/08/27 00:23:58;;;;;;;3.42;2.42;;;;;;;19.51;63.51;101061.47;5031592;28;20041;-56
2022/08/27 00:26:25;;;;;;;2.42;1.90;;;;;;;19.53;62.95;101072.06;5031272;28;20017;-56
2022/08/27 00:28:52;;;;;;;5.07;1.73;;;;;;;19.40;63.37;101067.91;5031686;28;20277;-56
2022/08/27 00:31:18;;;;;;;2.15;1.83;;;;;;;19.19;64.16;101061.50;5031607;28;20438;-56
2022/08/27 00:33:44;;;;;;;2.25;1.35;;;;;;;19.32;64.03;101075.69;5030586;28;20118;-56
2022/08/27 00:36:12;;;;;;;2.38;1.90;;;;;;;18.96;64.65;101070.75;5031220;28;20095;-56
2022/08/27 00:38:39;;;;;;;2.70;1.85;;;;;;;19.34;63.82;101070.84;5031586;28;20095;-56
2022/08/27 00:41:08;;;;;;;4.40;2.03;;;;;;;18.82;65.22;101060.56;5031304;28;20026;-56
2022/08/27 00:43:59;;;;;;;2.60;2.38;;;;;;;18.47;67.26;101059.06;5031520;28;20021;-56
2022/08/27 00:46:31;;;;;;;2.40;2.10;;;;;;;18.73;66.71;101054.81;5031378;28;20037;-56
2022/08/27 00:49:04;;;;;;;2.33;2.10;;;;;;;18.80;67.12;101057.31;5031301;28;20522;-56
2022/08/27 00:51:30;;;;;;;2.67;2.13;;;;;;;18.77;67.33;101057.81;5031244;28;20363;-56
2022/08/27 00:53:58;;;;;;;4.10;2.50;;;;;;;18.48;67.96;101056.09;5020308;28;20069;-57
2022/08/27 00:56:28;;;;;;;2.17;1.98;;;;;;;18.37;68.46;101042.69;5021304;28;20127;-57
2022/08/27 00:58:56;;;;;;;2.83;2.60;;;;;;;18.39;69.00;101043.28;5016797;28;20044;-57
2022/08/27 01:01:27;;;;;;;2.65;2.30;;;;;;;18.18;69.67;101059.28;5021125;28;20030;-57
2022/08/27 01:04:01;;;;;;;3.10;2.58;;;;;;;18.34;68.42;101062.19;5017097;28;20061;-59
2022/08/27 01:06:35;;;;;;;2.97;2.30;;;;;;;18.09;68.77;101060.75;5027620;28;20037;-57
2022/08/27 01:09:10;;;;;;;3.73;2.20;;;;;;;17.63;70.64;101059.25;5022425;28;20026;-58
2022/08/27 01:11:37;;;;;;;4.50;2.42;;;;;;;17.86;70.46;101058.28;5006258;28;20915;-57
2022/08/27 01:14:04;;;;;;;3.38;2.65;;;;;;;18.07;70.66;101057.50;5011325;28;20527;-57
2022/08/27 01:16:40;;;;;;;4.43;2.40;;;;;;;18.10;70.08;101046.19;5024815;28;20479;-57
2022/08/27 01:19:13;;;;;;;5.60;2.47;;;;;;;17.99;69.81;101044.41;5017383;28;20045;-57
2022/08/27 01:21:54;;;;;;;4.70;1.75;;;;;;;17.67;71.01;101050.41;5022548;28;20025;-57
2022/08/27 01:24:32;;;;;;;6.28;2.45;;;;;;;17.63;71.77;101045.72;5026715;28;20144;-57
2022/08/27 01:27:00;;;;;;;3.08;2.78;;;;;;;17.67;72.03;101036.88;5012157;28;20460;-57
2022/08/27 01:29:27;;;;;;;3.22;2.75;;;;;;;17.70;72.23;101038.25;5026731;28;20021;-56
2022/08/27 01:31:58;;;;;;;3.38;2.50;;;;;;;17.72;71.89;101044.28;5014685;28;20085;-57
2022/08/27 01:34:24;;;;;;;5.00;2.40;;;;;;;17.63;71.93;101037.59;5011532;28;20034;-57
2022/08/27 01:36:51;;;;;;;3.67;2.33;;;;;;;17.63;72.47;101032.19;5011674;28;20030;-57
2022/08/27 01:39:17;;;;;;;3.00;2.55;;;;;;;17.53;71.93;101040.97;5011830;28;20050;-57
2022/08/27 01:41:43;;;;;;;3.00;2.47;;;;;;;17.25;72.99;101032.94;5011766;28;20018;-57
2022/08/27 01:44:09;;;;;;;4.95;2.70;;;;;;;17.40;73.41;101042.13;5011246;28;20415;-56
2022/08/27 01:46:35;;;;;;;3.58;2.92;;;;;;;17.12;73.85;101044.91;5014174;28;20144;-57
2022/08/27 01:49:02;;;;;;;2.72;2.17;;;;;;;17.13;74.01;101043.84;5017420;28;20166;-56
2022/08/27 01:51:28;;;;;;;2.30;1.77;;;;;;;17.05;73.53;101036.97;5027806;28;20126;-57
2022/08/27 01:53:54;;;;;;;2.50;2.30;;;;;;;16.82;74.30;101031.66;5034755;28;20033;-57
2022/08/27 01:56:20;;;;;;;2.28;2.08;;;;;;;16.50;75.92;101036.72;5019343;28;20030;-56
2022/08/27 01:58:46;;;;;;;2.63;2.28;;;;;;;16.39;76.50;101033.00;5034413;28;20041;-57
2022/08/27 02:01:18;;;;;;;2.70;2.22;;;;;;;16.35;77.05;101027.22;5045891;22;20057;-57
2022/08/27 02:03:46;;;;;;;2.67;2.05;;;;;;;16.26;77.53;101022.44;5054533;28;20114;-56
2022/08/27 02:06:12;;;;;;;3.25;2.10;;;;;;;16.17;76.92;101024.72;5043705;28;20434;-56
2022/08/27 02:08:39;;;;;;;3.08;2.03;;;;;;;16.20;77.41;101034.19;5023898;28;20025;-57
2022/08/27 02:11:07;;;;;;;3.25;2.22;;;;;;;16.21;77.52;101030.44;5034494;28;20029;-57
2022/08/27 02:13:33;;;;;;;2.38;2.22;;;;;;;16.25;77.49;101031.59;5034985;28;20120;-57
2022/08/27 02:16:00;;;;;;;2.42;2.22;;;;;;;16.22;77.77;101029.41;5034470;28;20035;-57
2022/08/27 02:18:26;;;;;;;2.08;1.90;;;;;;;16.32;76.86;101016.06;5034401;28;20088;-57
2022/08/27 02:20:52;;;;;;;2.47;2.28;;;;;;;16.10;77.70;101014.03;5034140;28;20471;-57
2022/08/27 02:23:20;;;;;;;3.05;2.30;;;;;;;16.10;77.95;101022.16;5025622;28;20064;-57
2022/08/27 02:25:46;;;;;;;2.80;2.60;;;;;;;15.92;79.12;101016.88;5014112;28;20025;-57
2022/08/27 02:28:13;;;;;;;3.13;2.42;;;;;;;15.93;78.96;101017.69;5014467;28;20369;-57
2022/08/27 02:30:39;;;;;;;2.55;2.35;;;;;;;15.94;79.30;101014.78;5027769;28;20037;-57
2022/08/27 02:33:05;;;;;;;3.35;2.30;;;;;;;15.95;79.14;101011.00;5037017;28;20450;-57
2022/08/27 02:35:37;;;;;;;3.60;2.20;;;;;;;16.04;78.58;101020.38;5022223;28;20017;-57
2022/08/27 02:38:04;;;;;;;2.50;2.30;;;;;;;16.20;78.34;101026.91;5034258;28;20029;-57
2022/08/27 02:40:30;;;;;;;4.15;2.33;;;;;;;16.16;78.30;101027.63;5034709;28;20064;-57
2022/08/27 02:42:56;;;;;;;2.28;2.08;;;;;;;15.97;79.15;101030.50;5031756;28;20038;-56
2022/08/27 02:45:22;;;;;;;4.72;2.40;;;;;;;16.09;78.82;101028.59;5017562;28;20480;-57
2022/08/27 02:47:48;;;;;;;3.58;2.15;;;;;;;16.01;80.63;101020.03;5037445;28;20056;-57
2022/08/27 02:50:16;;;;;;;2.80;2.33;;;;;;;15.86;79.77;101017.81;5022644;28;20257;-56
2022/08/27 02:52:44;;;;;;;2.78;1.85;;;;;;;15.93;79.05;101023.91;5033950;28;20029;-56
2022/08/27 02:55:10;;;;;;;2.72;1.90;;;;;;;15.85;78.96;101021.59;5028520;28;20033;-56
2022/08/27 02:57:37;;;;;;;2.85;2.05;;;;;;;15.82;79.71;101024.75;5032357;28;20176;-56
2022/08/27 03:00:08;;;;;;;2.58;2.10;;;;;;;15.71;79.87;101025.56;5033814;28;20029;-57
2022/08/27 03:02:35;;;;;;;3.08;1.98;;;;;;;15.79;79.38;101028.75;5033284;28;20042;-56
2022/08/27 03:05:01;;;;;;;2.38;2.17;;;;;;;15.70;79.74;101030.16;5022691;28;20113;-56
2022/08/27 03:07:28;;;;;;;2.85;2.05;;;;;;;15.67;80.45;101032.53;5032557;28;20098;-56
2022/08/27 03:09:54;;;;;;;2.78;2.50;;;;;;;15.68;80.79;101036.84;5033602;28;20020;-56
2022/08/27 03:12:20;;;;;;;4.18;2.50;;;;;;;15.55;81.11;101033.31;5014760;28;20037;-56
2022/08/27 03:14:47;;;;;;;2.45;2.05;;;;;;;15.61;81.41;101041.53;5028630;28;20029;-56
2022/08/27 03:19:57;;;;;;;4.05;2.28;;;;;;;15.45;81.76;101043.84;5033815;28;20106;-56
2022/08/27 03:22:24;;;;;;;2.92;2.38;;;;;;;15.43;82.09;101050.53;5032588;28;20111;-56
2022/08/27 03:24:51;;;;;;;4.30;2.97;;;;;;;15.27;83.22;101046.66;5032866;28;20029;-56
2022/08/27 03:27:17;;;;;;;4.20;2.75;;;;;;;15.28;82.91;101048.28;5032939;28;20033;-56
2022/08/27 03:29:43;;;;;;;2.92;2.33;;;;;;;15.44;82.26;101052.19;5033528;28;20033;-56
2022/08/27 03:32:09;;;;;;;2.67;2.25;;;;;;;15.47;82.03;101052.53;5031459;28;20394;-56
2022/08/27 03:34:36;;;;;;;2.72;2.25;;;;;;;15.49;82.16;101054.97;5018628;28;20022;-56
2022/08/27 03:37:02;;;;;;;2.42;2.10;;;;;;;15.46;81.63;101053.59;5017124;28;20084;-56
2022/08/27 03:39:28;;;;;;;2.97;2.53;;;;;;;15.31;82.25;101048.63;5019496;28;20180;-56
2022/08/27 03:41:54;;;;;;;3.33;2.13;;;;;;;15.15;82.78;101057.38;5032132;28;20021;-55
2022/08/27 03:44:22;;;;;;;2.97;1.70;;;;;;;15.34;81.62;101052.75;5024661;28;20761;-56
2022/08/27 03:46:49;;;;;;;2.58;2.05;;;;;;;15.35;81.36;101062.47;5031514;28;20480;-56
2022/08/27 03:49:18;;;;;;;2.78;1.40;;;;;;;15.26;81.65;101069.25;5025310;28;20033;-56
2022/08/27 03:51:45;;;;;;;2.05;1.52;;;;;;;15.23;81.58;101072.44;5016140;28;20026;-56
2022/08/27 03:54:11;;;;;;;1.92;1.67;;;;;;;15.28;81.59;101065.28;5031753;28;20029;-56
2022/08/27 03:56:39;;;;;;;2.33;1.90;;;;;;;15.26;81.59;101067.38;5028087;28;20033;-56
2022/08/27 03:59:06;;;;;;;2.70;2.38;;;;;;;15.31;81.48;101069.38;5016070;28;20100;-56
2022/08/27 04:01:33;;;;;;;2.60;1.83;;;;;;;15.22;81.41;101071.63;5016525;28;20037;-57
2022/08/27 04:03:59;;;;;;;2.53;1.90;;;;;;;15.26;81.12;101071.94;5032092;28;20117;-57
2022/08/27 04:06:27;;;;;;;2.25;1.83;;;;;;;15.34;80.87;101070.81;5032626;28;20387;-57
2022/08/27 04:08:53;;;;;;;2.92;1.92;;;;;;;15.26;81.69;101077.34;5032486;28;20033;-57
2022/08/27 04:11:20;;;;;;;3.92;2.53;;;;;;;15.30;81.14;101073.13;5032447;28;20079;-57
2022/08/27 04:13:47;;;;;;;4.05;2.83;;;;;;;15.19;81.77;101079.34;5026981;28;20038;-57
2022/08/27 04:16:13;;;;;;;2.35;1.85;;;;;;;15.10;81.97;101089.59;5012119;28;20029;-57
2022/08/27 04:18:39;;;;;;;2.55;1.90;;;;;;;14.98;81.95;101086.06;5012695;28;20427;-57
2022/08/27 04:21:11;;;;;;;2.60;1.92;;;;;;;14.81;82.48;101096.66;5012613;28;20049;-57
2022/08/27 04:23:39;;;;;;;3.35;2.45;;;;;;;14.94;82.52;101096.50;5012234;28;20427;-57
2022/08/27 04:26:07;;;;;;;3.28;2.65;;;;;;;14.90;82.49;101095.28;5012234;28;20025;-57
2022/08/27 04:28:34;;;;;;;3.58;2.00;;;;;;;14.95;82.79;101095.44;5012332;28;20400;-57
2022/08/27 04:31:02;;;;;;;3.00;1.58;;;;;;;15.01;82.80;101097.22;5013118;28;20036;-56
2022/08/27 04:33:31;;;;;;;2.55;1.75;;;;;;;14.96;82.26;101096.25;5012346;28;20026;-56
2022/08/27 04:36:03;;;;;;;2.65;1.67;;;;;;;14.90;81.97;101095.28;5012851;28;20071;-57
2022/08/27 04:38:29;;;;;;;2.38;1.80;;;;;;;14.94;82.42;101107.28;5010453;28;20026;-56
2022/08/27 04:43:41;;;;;;;1.80;1.70;;;;;;;14.86;81.54;101104.06;5032361;28;20066;-57
2022/08/27 04:46:07;;;;;;;2.35;1.95;;;;;;;14.79;82.32;101104.16;5029937;28;20029;-56
2022/08/27 04:48:34;;;;;;;1.73;1.10;;;;;;;14.68;83.07;101096.84;5031744;28;20083;-56
2022/08/27 04:51:00;;;;;;;3.55;1.65;;;;;;;14.62;83.24;101095.06;5030796;28;20028;-56
2022/08/27 04:53:26;;;;;;;1.52;1.20;;;;;;;14.71;83.14;101090.97;5031724;28;20104;-56
2022/08/27 04:55:55;;;;;;;3.78;1.25;;;;;;;14.64;82.71;101099.16;5030844;28;20466;-57
2022/08/27 04:58:23;;;;;;;1.52;1.25;;;;;;;14.57;82.45;101098.41;5012168;28;20037;-56
2022/08/27 05:00:52;;;;;;;1.55;1.13;;;;;;;14.59;82.35;101092.78;5016421;28;20026;-57
2022/08/27 05:03:25;;;;;;;1.70;1.00;;;;;;;14.49;82.73;101091.47;5031963;28;20030;-57
2022/08/27 05:05:53;;;;;;;1.60;1.08;;;;;;;14.40;83.17;101087.41;5030125;28;20060;-56
2022/08/27 05:08:19;;;;;;;1.80;0.90;;;;;;;14.41;82.99;101088.22;5031421;28;20025;-56
2022/08/27 05:10:48;;;;;;;1.10;0.90;;;;;;;14.40;82.52;101086.59;5031103;28;20063;-56
2022/08/27 05:13:17;;;;;;;1.20;0.70;;;;;;;14.40;82.33;101090.09;5030298;28;20026;-56
2022/08/27 05:15:44;;;;;;;1.73;0.70;;;;;;;14.37;81.34;101087.84;5029923;28;20033;-56
2022/08/27 05:18:12;;;;;;;2.75;0.93;;;;;;;14.26;82.29;101077.81;5031926;28;20033;-56
2022/08/27 05:20:47;;;;;;;1.45;0.57;;;;;;;14.26;82.72;101088.59;5032195;28;20030;-56
2022/08/27 05:23:13;;;;;;;;;;;;;;;14.22;82.50;101087.41;5035818;28;20083;-56
2022/08/27 05:25:42;;;;;;;0.68;0.60;;;;;;;14.31;82.40;101085.22;5032319;28;20280;-56
2022/08/27 05:28:10;;;;;;;0.93;0.60;;;;;;;14.27;82.66;101080.31;5025629;28;20029;-56
2022/08/27 05:30:40;;;;;;;1.33;0.60;;;;;;;14.33;83.03;101083.97;5028117;28;20124;-56
2022/08/27 05:33:07;;;;;;;0.90;0.47;;;;;;;14.36;82.12;101088.88;5015637;28;20022;-56
2022/08/27 05:35:49;;;;;;;0.82;0.68;;;;;;;14.22;82.58;101088.22;5022482;28;20109;-56
2022/08/27 05:38:17;;;;;;;1.10;0.70;;;;;;;14.18;83.54;101086.19;5016136;28;20033;-56
2022/08/27 05:40:44;;;;;;;0.55;0.50;;;;;;;14.24;82.04;101088.81;5015485;28;20030;-56
2022/08/27 05:43:14;;;;;;;1.23;0.77;;;;;;;14.17;82.22;101085.38;5015541;28;20021;-56
2022/08/27 05:45:46;;;;;;;0.50;0.50;;;;;;;14.10;82.32;101084.63;5015209;28;20395;-56
2022/08/27 05:48:14;;;;;;;1.33;0.88;;;;;;;14.05;82.67;101086.31;5025781;28;20029;-56
2022/08/27 05:50:42;;;;;;;0.80;0.60;;;;;;;14.13;82.62;101081.50;5034889;28;20056;-56
2022/08/27 05:53:10;;;;;;;0.93;0.80;;;;;;;13.98;82.15;101084.53;5034958;28;20037;-54
2022/08/27 05:55:43;;;;;;;0.90;0.70;;;;;;;14.02;82.36;101071.47;5033934;28;20033;-53
2022/08/27 06:01:03;;;;;;;0.93;0.70;;;;;;;13.97;83.12;101082.88;5034927;28;20079;-54
2022/08/27 06:01:04;;;;;;;1.08;0.70;;;;;;;14.09;82.84;101068.69;5034703;28;20045;-53
2022/08/27 06:03:34;;;;;;;0.98;0.63;;;;;;;14.00;83.17;101065.50;5035184;28;20030;-55
2022/08/27 06:06:02;;;;;;;1.08;0.88;;;;;;;13.90;83.88;101062.47;5033606;28;20021;-55
2022/08/27 06:08:28;;;;;;;0.70;0.60;;;;;;;13.95;83.69;101059.94;5034785;28;20274;-54
2022/08/27 06:10:55;;;;;;;1.20;0.93;;;;;;;14.02;83.39;101055.31;5033269;28;20487;-55
2022/08/27 06:13:23;;;;;;;0.68;0.60;;;;;;;13.90;83.66;101057.91;5013270;28;20116;-54
2022/08/27 06:15:49;;;;;;;0.65;0.50;;;;;;;13.89;83.43;101050.06;5025469;28;20080;-53
2022/08/27 06:18:16;;;;;;;0.77;0.43;;;;;;;14.02;83.29;101055.31;5034969;28;20088;-53
2022/08/27 06:20:42;;;;;;;0.93;0.68;;;;;;;14.07;83.15;101046.56;5032950;28;20116;-54
2022/08/27 06:23:08;;;;;;;0.77;0.60;;;;;;;14.08;83.29;101049.03;5034718;28;20056;-56
2022/08/27 06:25:39;;;;;;;1.45;0.60;;;;;;;14.02;83.68;101057.19;5026191;28;20033;-56
2022/08/27 06:28:05;;;;;;;0.82;0.50;;;;;;;14.12;83.51;101046.72;5014284;28;20032;-55
2022/08/27 06:30:32;;;;;;;0.65;0.60;;;;;;;14.18;83.72;101054.72;5021817;28;20033;-56
2022/08/27 06:32:58;;;;;;;1.45;0.40;;;;;;;14.16;83.57;101045.25;5032973;28;20028;-55
2022/08/27 06:35:24;;;;;;;0.55;0.40;;;;;;;14.13;83.95;101061.81;5031581;28;20391;-55
2022/08/27 06:37:50;;;;;;;2.35;0.57;;;;;;;14.27;83.46;101055.25;5014449;28;20025;-54
2022/08/27 06:40:17;;;;;;;0.47;0.40;;;;;;;14.32;83.13;101044.59;5017656;28;20033;-56
2022/08/27 06:42:43;;;;;;;0.70;0.45;;;;;;;14.38;82.82;101040.19;5034374;28;20064;-56
2022/08/27 06:45:10;;;;;;;0.30;0.30;;;;;;;14.29;83.85;101049.63;5016403;28;20076;-56
2022/08/27 06:47:36;;;;;;;0.82;0.40;;;;;;;14.29;83.39;101049.63;5014304;28;20048;-56
2022/08/27 06:50:03;;;;;;;0.20;0.20;;;;;;;14.30;82.06;101032.44;5026972;28;20036;-56
2022/08/27 06:52:29;;;;;;;0.20;0.20;;;;;;;14.27;80.92;101045.31;5033990;28;20379;-56
2022/08/27 06:54:55;;;;;;;0.40;0.10;;;;;;;14.16;80.95;101051.44;5020682;28;20272;-56
2022/08/27 06:57:23;;;;;;;0.30;0.10;;;;;;;14.17;81.01;101052.25;5014014;28;20029;-56
2022/08/27 06:59:49;;;;;;;0.32;0.20;;;;;;;14.11;81.59;101047.78;5025130;28;20113;-56
2022/08/27 07:02:15;;;;;;;0.35;0.30;;;;;;;13.97;81.75;101039.81;5033523;28;20454;-56
2022/08/27 07:04:42;;;;;;;0.20;0.20;;;;;;;14.00;81.97;101041.28;5020837;28;20033;-56
2022/08/27 07:07:12;;;;;;;0.32;0.30;;;;;;;14.04;81.69;101047.00;5025197;28;20505;-56
2022/08/27 07:09:39;;;;;;;0.70;0.50;;;;;;;13.77;82.28;101041.91;5032254;28;20038;-56
2022/08/27 07:12:05;;;;;;;0.40;0.40;;;;;;;13.68;82.95;101044.06;5026753;28;20558;-56
2022/08/27 07:14:33;;;;;;;0.45;0.38;;;;;;;13.71;83.27;101037.41;5012706;28;20038;-56
2022/08/27 07:16:59;;;;;;;1.75;0.57;;;;;;;13.63;83.94;101043.91;5019505;28;20053;-56
2022/08/27 07:19:27;;;;;;;0.40;0.40;;;;;;;13.84;83.51;101036.47;5033547;28;20471;-56
2022/08/27 07:21:53;;;;;;;0.40;0.40;;;;;;;13.83;82.99;101037.53;5024715;28;20116;-56
2022/08/27 07:24:19;;;;;;;0.50;0.30;;;;;;;13.74;82.30;101036.97;5033065;28;20032;-56
2022/08/27 07:26:46;;;;;;;0.30;0.30;;;;;;;13.71;82.51;101035.56;5031393;28;20030;-56
2022/08/27 07:29:14;;;;;;;0.50;0.38;;;;;;;13.69;82.34;101039.50;5032985;28;20029;-56
2022/08/27 07:31:42;;;;;;;0.45;0.40;;;;;;;13.65;82.55;101033.72;5032986;28;20021;-56
2022/08/27 07:34:08;;;;;;;1.05;0.60;;;;;;;13.62;82.96;101025.31;5029879;28;20029;-56
2022/08/27 07:36:36;;;;;;;1.80;0.57;;;;;;;13.78;82.27;101027.41;5032357;28;20048;-56
2022/08/27 07:39:03;;;;;;;0.43;0.40;;;;;;;13.54;82.75;101020.19;5024020;28;20026;-56
2022/08/27 07:41:30;;;;;;;0.70;0.50;;;;;;;13.51;82.85;101020.66;5013053;28;20029;-56
2022/08/27 07:46:46;;;;;;;0.45;0.40;;;;;;;13.69;82.80;101015.28;5013201;28;20130;-56
2022/08/27 07:49:12;;;;;;;0.80;0.57;;;;;;;13.67;83.15;101015.53;5011846;28;20501;-56
2022/08/27 07:51:38;;;;;;;0.73;0.47;;;;;;;13.68;83.51;101019.03;5012995;28;20026;-56
2022/08/27 07:54:05;;;;;;;2.03;0.80;;;;;;;13.67;83.41;101020.09;5013179;28;20030;-56
2022/08/27 07:56:31;;;;;;;0.65;0.57;;;;;;;13.67;83.70;101020.09;5012909;28;20476;-56
2022/08/27 07:58:57;;;;;;;1.00;0.90;;;;;;;13.68;83.80;101016.34;5012874;28;20400;-56
2022/08/27 08:01:24;;;;;;;0.88;0.60;;;;;;;13.69;83.84;101018.81;5012439;28;20060;-56
2022/08/27 08:03:50;;;;;;;0.80;0.50;;;;;;;13.77;83.16;101015.03;5012110;28;20124;-56
2022/08/27 08:06:17;;;;;;;1.10;0.55;;;;;;;13.82;82.76;101012.44;5011991;28;20030;-56
2022/08/27 08:08:44;;;;;;;1.33;0.52;;;;;;;13.85;82.61;101012.03;5013041;28;20026;-56
2022/08/27 08:11:12;;;;;;;0.70;0.40;;;;;;;13.81;82.82;101013.50;5013278;28;20026;-56
2022/08/27 08:13:39;;;;;;;2.05;0.50;;;;;;;13.86;82.68;101002.06;5012435;28;20026;-56
2022/08/27 08:16:05;;;;;;;0.50;0.50;;;;;;;13.80;82.65;101002.97;5025773;28;20443;-56
2022/08/27 08:18:32;;;;;;;0.52;0.40;;;;;;;13.86;82.20;101002.91;5032152;28;20044;-56
2022/08/27 08:21:05;;;;;;;0.80;0.50;;;;;;;13.84;82.70;100993.41;5014381;28;20030;-56
2022/08/27 08:23:32;;;;;;;3.72;0.70;;;;;;;13.87;82.40;101004.53;5011337;28;20042;-56
2022/08/27 08:25:59;;;;;;;0.90;0.50;;;;;;;13.84;82.63;100994.25;5012634;28;20104;-56
2022/08/27 08:28:27;;;;;;;0.70;0.50;;;;;;;13.79;82.78;100996.78;5013241;28;20109;-56
2022/08/27 08:30:54;;;;;;;1.83;0.57;;;;;;;13.79;83.08;100986.00;5012091;28;20025;-56
2022/08/27 08:33:21;;;;;;;0.80;0.50;;;;;;;13.86;82.70;100989.44;5012274;28;20194;-56
2022/08/27 08:35:50;;;;;;;1.52;0.70;;;;;;;13.78;83.79;100992.44;5015462;28;20077;-56
2022/08/27 08:38:18;;;;;;;0.70;0.60;;;;;;;13.77;83.68;100993.50;5013906;28;20033;-56
2022/08/27 08:40:49;;;;;;;0.80;0.60;;;;;;;13.92;83.79;100993.94;5020001;28;20034;-56
2022/08/27 08:43:37;;;;;;;0.77;0.70;;;;;;;13.91;83.93;100992.28;5012527;28;20123;-56
2022/08/27 08:46:12;;;;;;;0.73;0.70;;;;;;;13.82;84.20;100990.94;5014206;28;20034;-56
2022/08/27 08:48:46;;;;;;;0.60;0.60;;;;;;;13.77;84.21;100988.13;5012398;28;20104;-57
2022/08/27 08:51:27;;;;;;;0.40;0.40;;;;;;;13.81;83.82;100988.47;5012332;28;20037;-56
2022/08/27 08:54:14;;;;;;;0.68;0.50;;;;;;;13.67;83.75;100991.31;5011912;28;20064;-56
2022/08/27 08:56:51;;;;;;;0.93;0.43;;;;;;;13.78;83.30;100989.75;5015539;28;20026;-56
2022/08/27 08:59:28;;;;;;;2.90;0.68;;;;;;;13.69;83.68;100975.75;5015993;28;20026;-56
2022/08/27 09:01:56;;;;;;;0.63;0.55;;;;;;;13.76;84.11;100983.75;5016858;28;20404;-56
2022/08/27 09:04:25;;;;;;;1.45;0.60;;;;;;;13.82;83.93;100976.66;5015958;28;20109;-56
2022/08/27 09:07:19;;;;;;;0.73;0.68;;;;;;;13.91;83.70;100983.41;5016037;28;20116;-56
2022/08/27 09:10:02;;;;;;;0.88;0.82;;;;;;;13.84;84.32;100978.09;5016182;28;20064;-56
2022/08/27 09:12:31;;;;;;;1.10;0.80;;;;;;;13.86;84.69;100975.16;5016124;28;20133;-56
2022/08/27 09:15:18;;;;;;;1.02;0.75;;;;;;;13.80;85.56;100974.19;5015401;28;20025;-56
2022/08/27 09:17:46;;;;;;;1.48;0.88;;;;;;;13.75;85.82;100976.72;5031632;28;20033;-56
2022/08/27 09:20:16;;;;;;;0.80;0.80;;;;;;;13.95;85.07;100979.22;5035006;28;20030;-56
2022/08/27 09:22:53;;;;;;;1.55;0.80;;;;;;;13.92;85.29;100982.34;5035692;28;20059;-57
2022/08/27 09:25:32;;;;;;;2.45;1.08;;;;;;;14.03;85.24;100976.22;5035368;28;20479;-56
2022/08/27 09:29:14;;;;;;;1.08;0.82;;;;;;;13.94;85.22;100969.50;5035399;28;20464;-56
2022/08/27 09:31:07;;;;;;;2.42;1.13;;;;;;;13.95;85.14;100952.31;5035268;28;20028;-56
2022/08/27 09:33:33;;;;;;;1.42;0.68;;;;;;;13.98;85.64;100949.16;5035201;28;20168;-56
2022/08/27 09:36:10;;;;;;;1.27;0.80;;;;;;;14.07;85.31;100960.44;5034711;28;20021;-56
2022/08/27 09:38:49;;;;;;;1.27;0.88;;;;;;;13.99;85.80;100954.31;5033732;28;20059;-52
2022/08/27 09:41:22;;;;;;;1.48;0.95;;;;;;;14.08;85.59;100957.53;5026085;28;20033;-57
2022/08/27 09:44:00;;;;;;;0.80;0.73;;;;;;;14.20;85.44;100960.25;5019464;28;20029;-56
2022/08/27 09:46:27;;;;;;;1.33;0.90;;;;;;;14.10;85.50;100949.22;5035047;28;20021;-56
2022/08/27 09:48:54;;;;;;;0.90;0.77;;;;;;;14.16;85.58;100953.72;5021199;28;20379;-56
2022/08/27 09:51:26;;;;;;;1.55;0.63;;;;;;;14.27;84.79;100951.06;5028691;28;20029;-57
2022/08/27 09:53:56;;;;;;;1.35;0.70;;;;;;;14.23;84.62;100954.44;5015895;28;20081;-56
2022/08/27 09:56:27;;;;;;;1.42;0.50;;;;;;;14.25;84.84;100952.31;5017478;28;20026;-56
2022/08/27 09:58:59;;;;;;;2.15;0.70;;;;;;;14.31;84.57;100950.59;5009831;28;20113;-56
2022/08/27 10:01:30;;;;;;;3.33;0.70;;;;;;;14.25;84.52;100952.31;5014990;28;20041;-56
2022/08/27 10:04:04;;;;;;;2.47;0.65;;;;;;;14.17;84.46;100947.28;5014910;28;20084;-56
2022/08/27 10:06:31;;;;;;;1.58;0.77;;;;;;;14.18;85.09;100952.41;5014773;28;20037;-57
2022/08/27 10:09:27;;;;;;;1.92;1.00;;;;;;;14.07;85.83;100950.50;5020884;28;20037;-56
2022/08/27 10:12:17;;;;;;;2.63;1.08;;;;;;;14.09;85.61;100956.47;5014579;28;20475;-56
2022/08/27 10:14:49;;;;;;;0.80;0.55;;;;;;;14.11;85.09;100956.25;5014645;28;20060;-56
2022/08/27 10:17:50;;;;;;;2.20;0.80;;;;;;;14.13;85.37;100954.16;5014750;28;20022;-56
2022/08/27 10:20:51;;;;;;;3.28;0.70;;;;;;;14.25;84.85;100946.94;4997874;28;20034;-57
2022/08/27 10:23:51;;;;;;;1.55;1.08;;;;;;;14.26;84.58;100943.19;5011458;28;20088;-56
2022/08/27 10:26:33;;;;;;;1.10;0.68;;;;;;;14.25;84.54;100944.25;5015472;28;20447;-56
2022/08/27 10:29:30;;;;;;;1.42;0.88;;;;;;;14.26;84.04;100952.09;5034379;28;20021;-56
2022/08/27 10:32:30;;;;;;;2.47;0.77;;;;;;;14.18;84.49;100952.41;5034512;28;20152;-56
2022/08/27 10:35:17;;;;;;;1.27;0.80;;;;;;;14.31;84.37;100953.28;5033969;28;20068;-56
2022/08/27 10:37:59;;;;;;;0.70;0.70;;;;;;;14.24;84.76;100946.13;5034275;28;20036;-56
2022/08/27 10:40:30;;;;;;;1.15;0.80;;;;;;;14.23;85.03;100951.75;5034375;28;20064;-56
2022/08/27 10:43:21;;;;;;;1.85;0.93;;;;;;;14.13;85.88;100948.78;5034131;28;20479;-56
2022/08/27 10:46:02;;;;;;;1.45;0.70;;;;;;;14.26;84.96;100941.31;5025668;28;20049;-56
2022/08/27 10:48:34;;;;;;;1.92;1.05;;;;;;;14.06;85.28;100943.47;5014043;28;20026;-56
2022/08/27 10:51:07;;;;;;;2.42;1.00;;;;;;;14.07;85.44;100933.53;5014363;28;20511;-57
2022/08/27 10:53:39;;;;;;;2.55;1.05;;;;;;;14.05;85.62;100941.00;5019043;28;20057;-56
2022/08/27 10:56:34;;;;;;;1.38;1.00;;;;;;;14.15;85.15;100944.78;5032046;28;20124;-56
2022/08/27 10:59:17;;;;;;;1.77;0.88;;;;;;;14.21;84.85;100943.06;5015813;28;20042;-56
2022/08/27 11:01:49;;;;;;;3.33;0.80;;;;;;;14.19;84.03;100935.22;5013981;28;20186;-56
2022/08/27 11:04:30;;;;;;;0.85;0.57;;;;;;;14.24;83.34;100940.75;5016146;28;20378;-56
2022/08/27 11:07:26;;;;;;;2.47;0.55;;;;;;;14.15;83.54;100941.28;5033535;28;20538;-56
2022/08/27 11:10:29;;;;;;;0.82;0.70;;;;;;;14.23;83.16;100939.09;5032140;28;20075;-56
2022/08/27 11:13:02;;;;;;;0.95;0.60;;;;;;;14.34;83.25;100942.06;5020806;28;20048;-56
2022/08/27 11:15:36;;;;;;;3.33;0.73;;;;;;;14.24;83.63;100939.94;5019973;28;20042;-56
2022/08/27 11:18:39;;;;;;;1.10;0.80;;;;;;;14.17;84.08;100945.41;5023072;28;20025;-56
2022/08/27 11:21:45;;;;;;;1.48;0.80;;;;;;;14.13;84.05;100938.81;5024652;28;20049;-56
2022/08/27 11:24:37;;;;;;;0.40;0.40;;;;;;;14.19;84.17;100932.53;5024162;28;20048;-56
2022/08/27 11:27:06;;;;;;;0.65;0.50;;;;;;;14.28;84.02;100924.97;5033673;28;20139;-56
2022/08/27 11:29:42;;;;;;;1.27;0.60;;;;;;;14.11;84.47;100930.16;5014075;28;20026;-56
2022/08/27 11:32:20;;;;;;;1.52;0.82;;;;;;;14.15;84.32;100925.94;5013312;28;20034;-56
2022/08/27 11:35:00;;;;;;;0.50;0.50;;;;;;;14.05;84.86;100922.16;5017814;28;20064;-56
2022/08/27 11:37:29;;;;;;;0.30;0.30;;;;;;;14.14;84.32;100929.69;5029281;28;20471;-56
2022/08/27 11:40:13;;;;;;;1.05;0.50;;;;;;;14.10;84.02;100931.22;5013169;28;20034;-56
2022/08/27 11:42:40;;;;;;;0.73;0.47;;;;;;;14.09;84.49;100937.63;5013155;28;20042;-56
2022/08/27 11:45:33;;;;;;;0.75;0.50;;;;;;;14.20;84.22;100936.84;5012760;28;20033;-56
2022/08/27 11:48:02;;;;;;;1.75;0.40;;;;;;;14.15;83.63;100933.19;5013092;28;20088;-56
2022/08/27 11:50:31;;;;;;;1.38;0.65;;;;;;;14.10;83.15;100939.28;5013067;28;20033;-56